createdAt,value
2019-02-16T00:00:47.135Z,3.19
2019-02-16T00:02:56.468Z,3.18
2019-02-16T00:05:03.458Z,3.18
2019-02-16T00:07:10.354Z,3.18
2019-02-16T00:09:17.374Z,3.14
2019-02-16T00:11:25.913Z,3.18
2019-02-16T00:13:33.074Z,3.16
2019-02-16T00:15:40.422Z,3.11
2019-02-16T00:17:47.683Z,3.10
2019-02-16T00:19:54.353Z,3.04
2019-02-16T00:22:01.133Z,3.01
2019-02-16T00:24:08.605Z,2.91
2019-02-16T00:26:15.687Z,2.83
2019-02-16T00:28:23.405Z,2.75
2019-02-16T00:30:30.599Z,2.70
2019-02-16T00:32:37.431Z,2.66
2019-02-16T00:34:44.455Z,2.59
2019-02-16T00:36:51.400Z,2.57
2019-02-16T00:38:58.506Z,2.56
2019-02-16T00:41:05.815Z,2.57
2019-02-16T00:43:12.728Z,2.53
2019-02-16T00:45:19.619Z,2.53
2019-02-16T00:47:27.313Z,2.48
2019-02-16T00:49:34.834Z,2.52
2019-02-16T00:51:42.480Z,2.50
2019-02-16T00:53:49.710Z,2.52
2019-02-16T00:55:57.027Z,2.49
2019-02-16T00:58:04.370Z,2.48
2019-02-16T01:00:13.634Z,2.43
2019-02-16T01:02:21.299Z,2.37
2019-02-16T01:04:28.340Z,2.38
2019-02-16T01:06:35.621Z,2.37
2019-02-16T01:08:42.395Z,2.36
2019-02-16T01:10:49.262Z,2.39
2019-02-16T01:12:56.298Z,2.39
2019-02-16T01:15:03.704Z,2.42
2019-02-16T01:17:10.735Z,2.42
2019-02-16T01:19:17.842Z,2.40
2019-02-16T01:21:24.774Z,2.35
2019-02-16T01:23:32.046Z,2.36
2019-02-16T01:25:39.496Z,2.30
2019-02-16T01:27:46.660Z,2.26
2019-02-16T01:29:53.282Z,2.24
2019-02-16T01:32:00.256Z,2.22
2019-02-16T01:34:07.604Z,2.25
2019-02-16T01:36:14.444Z,2.22
2019-02-16T01:38:21.402Z,2.18
2019-02-16T01:40:30.083Z,2.11
2019-02-16T01:42:37.101Z,2.06
2019-02-16T01:44:43.969Z,2.06
2019-02-16T01:46:51.558Z,2.04
2019-02-16T01:48:59.018Z,2.06
2019-02-16T01:51:06.122Z,2.04
2019-02-16T01:53:13.111Z,2.02
2019-02-16T01:55:20.631Z,2.01
2019-02-16T01:57:27.796Z,2.03
2019-02-16T01:59:35.692Z,2.00
2019-02-16T02:01:43.283Z,1.96
2019-02-16T02:03:50.786Z,1.95
2019-02-16T02:05:58.334Z,1.93
2019-02-16T02:08:05.956Z,1.89
2019-02-16T02:10:13.150Z,1.90
2019-02-16T02:12:20.420Z,1.91
2019-02-16T02:14:27.535Z,1.92
2019-02-16T02:16:35.793Z,1.88
2019-02-16T02:18:43.228Z,1.84
2019-02-16T02:20:50.371Z,1.85
2019-02-16T02:22:57.484Z,1.84
2019-02-16T02:25:04.581Z,1.72
2019-02-16T02:27:12.198Z,1.60
2019-02-16T02:29:19.238Z,1.56
2019-02-16T02:31:26.975Z,1.56
2019-02-16T02:33:34.339Z,1.52
2019-02-16T02:35:41.862Z,1.44
2019-02-16T02:37:49.285Z,1.48
2019-02-16T02:39:56.432Z,1.56
2019-02-16T02:42:03.567Z,1.60
2019-02-16T02:44:10.491Z,1.60
2019-02-16T02:46:17.493Z,1.66
2019-02-16T02:48:24.650Z,1.51
2019-02-16T02:50:31.507Z,1.50
2019-02-16T02:52:39.236Z,1.50
2019-02-16T02:54:46.810Z,1.48
2019-02-16T02:56:54.023Z,1.40
2019-02-16T02:59:01.074Z,1.33
2019-02-16T03:01:08.172Z,1.26
2019-02-16T03:03:15.750Z,1.16
2019-02-16T03:05:22.729Z,1.14
2019-02-16T03:07:31.879Z,1.08
2019-02-16T03:09:38.839Z,1.09
2019-02-16T03:11:45.929Z,1.14
2019-02-16T03:13:53.218Z,1.07
2019-02-16T03:16:01.317Z,1.13
2019-02-16T03:18:08.598Z,1.15
2019-02-16T03:20:16.257Z,1.18
2019-02-16T03:22:24.309Z,1.09
2019-02-16T03:24:31.683Z,1.02
2019-02-16T03:26:44.611Z,1.00
2019-02-16T03:29:10.992Z,0.99
2019-02-16T03:31:25.113Z,0.98
2019-02-16T03:33:45.036Z,1.02
2019-02-16T03:36:20.993Z,0.93
2019-02-16T03:38:40.859Z,1.00
2019-02-16T03:40:50.600Z,1.04
2019-02-16T03:42:57.926Z,0.93
2019-02-16T03:45:07.115Z,0.93
2019-02-16T03:47:14.403Z,0.91
2019-02-16T03:49:21.871Z,0.84
2019-02-16T03:51:30.195Z,0.72
2019-02-16T03:53:37.763Z,0.75
2019-02-16T03:55:44.765Z,0.76
2019-02-16T03:57:52.354Z,0.71
2019-02-16T03:59:59.184Z,0.76
2019-02-16T04:02:06.863Z,0.81
2019-02-16T04:04:14.621Z,0.84
2019-02-16T04:06:22.032Z,0.79
2019-02-16T04:08:30.321Z,0.79
2019-02-16T04:10:37.468Z,0.81
2019-02-16T04:12:44.325Z,0.85
2019-02-16T04:14:51.602Z,0.88
2019-02-16T04:16:59.570Z,0.84
2019-02-16T04:19:06.643Z,0.80
2019-02-16T04:21:13.809Z,0.75
2019-02-16T04:23:21.256Z,0.68
2019-02-16T04:25:28.709Z,0.71
2019-02-16T04:27:35.589Z,0.72
2019-02-16T04:29:42.971Z,0.75
2019-02-16T04:31:49.929Z,0.77
2019-02-16T04:33:57.148Z,0.65
2019-02-16T04:36:04.069Z,0.57
2019-02-16T04:38:11.379Z,0.51
2019-02-16T04:40:18.832Z,0.51
2019-02-16T04:42:26.449Z,0.50
2019-02-16T04:44:33.496Z,0.52
2019-02-16T04:46:41.824Z,0.50
2019-02-16T04:48:48.875Z,0.46
2019-02-16T04:50:56.603Z,0.40
2019-02-16T04:53:04.060Z,0.41
2019-02-16T04:55:11.725Z,0.40
2019-02-16T04:57:19.283Z,0.46
2019-02-16T04:59:26.602Z,0.51
2019-02-16T05:01:33.790Z,0.57
2019-02-16T05:03:41.088Z,0.57
2019-02-16T05:05:49.528Z,0.59
2019-02-16T05:07:56.370Z,0.62
2019-02-16T05:10:05.090Z,0.56
2019-02-16T05:12:12.616Z,0.60
2019-02-16T05:14:19.611Z,0.52
2019-02-16T05:16:26.833Z,0.45
2019-02-16T05:18:34.177Z,0.47
2019-02-16T05:20:41.512Z,0.56
2019-02-16T05:22:48.616Z,0.55
2019-02-16T05:24:55.586Z,0.67
2019-02-16T05:27:03.007Z,0.77
2019-02-16T05:29:10.491Z,0.74
2019-02-16T05:31:17.693Z,0.49
2019-02-16T05:33:25.220Z,0.43
2019-02-16T05:35:32.278Z,0.39
2019-02-16T05:37:39.993Z,0.32
2019-02-16T05:39:47.008Z,0.30
2019-02-16T05:41:54.478Z,0.27
2019-02-16T05:44:01.886Z,0.32
2019-02-16T05:46:09.118Z,0.35
2019-02-16T05:48:16.591Z,0.36
2019-02-16T05:50:23.188Z,0.40
2019-02-16T05:52:30.378Z,0.30
2019-02-16T05:54:38.213Z,0.21
2019-02-16T05:56:46.948Z,0.12
2019-02-16T05:58:54.129Z,0.09
2019-02-16T06:01:00.972Z,0.15
2019-02-16T06:03:08.106Z,0.12
2019-02-16T06:05:17.485Z,0.13
2019-02-16T06:07:24.363Z,0.23
2019-02-16T06:09:31.318Z,0.31
2019-02-16T06:11:38.475Z,0.34
2019-02-16T06:13:45.669Z,0.36
2019-02-16T06:15:52.563Z,0.35
2019-02-16T06:17:59.503Z,0.26
2019-02-16T06:20:08.953Z,0.32
2019-02-16T06:22:16.051Z,0.30
2019-02-16T06:24:23.243Z,0.31
2019-02-16T06:26:29.926Z,0.28
2019-02-16T06:28:37.125Z,0.29
2019-02-16T06:30:44.633Z,0.28
2019-02-16T06:32:53.143Z,0.19
2019-02-16T06:35:10.913Z,0.30
2019-02-16T06:37:25.010Z,0.25
2019-02-16T06:39:32.561Z,0.31
2019-02-16T06:41:40.124Z,0.26
2019-02-16T06:43:46.836Z,0.29
2019-02-16T06:45:53.820Z,0.20
2019-02-16T06:48:00.794Z,0.27
2019-02-16T06:50:09.424Z,0.33
2019-02-16T06:52:17.504Z,0.34
2019-02-16T06:54:24.263Z,0.43
2019-02-16T06:56:34.304Z,0.42
2019-02-16T06:58:41.413Z,0.43
2019-02-16T07:00:48.650Z,0.28
2019-02-16T07:02:55.932Z,0.40
2019-02-16T07:05:02.742Z,0.40
2019-02-16T07:07:11.228Z,0.71
2019-02-16T07:09:19.050Z,0.75
2019-02-16T07:11:27.939Z,0.93
2019-02-16T07:13:34.877Z,0.82
2019-02-16T07:15:41.805Z,0.87
2019-02-16T07:17:53.211Z,0.69
2019-02-16T07:20:00.372Z,0.73
2019-02-16T07:22:08.058Z,0.98
2019-02-16T07:24:14.824Z,0.95
2019-02-16T07:26:22.046Z,0.95
2019-02-16T07:28:28.911Z,1.33
2019-02-16T07:30:35.796Z,1.28
2019-02-16T07:32:42.648Z,1.34
2019-02-16T07:34:49.543Z,1.40
2019-02-16T07:36:56.863Z,1.21
2019-02-16T07:39:05.312Z,1.42
2019-02-16T07:41:12.812Z,1.48
2019-02-16T07:43:36.592Z,1.40
2019-02-16T07:45:45.360Z,1.31
2019-02-16T07:48:13.062Z,1.27
2019-02-16T07:50:21.626Z,1.04
2019-02-16T07:52:33.483Z,1.00
2019-02-16T07:54:40.878Z,1.12
2019-02-16T07:56:58.896Z,1.05
2019-02-16T07:59:16.976Z,1.08
2019-02-16T08:01:30.047Z,0.93
2019-02-16T08:03:38.765Z,0.81
2019-02-16T08:06:00.283Z,0.88
2019-02-16T08:08:19.242Z,0.93
2019-02-16T08:10:33.305Z,1.07
2019-02-16T08:12:41.837Z,1.22
2019-02-16T08:14:48.762Z,1.28
2019-02-16T08:17:00.636Z,1.35
2019-02-16T08:19:28.555Z,1.44
2019-02-16T08:21:39.108Z,1.54
2019-02-16T08:24:05.647Z,1.72
2019-02-16T08:26:17.285Z,1.55
2019-02-16T08:28:26.871Z,1.61
2019-02-16T08:30:38.409Z,1.75
2019-02-16T08:32:53.442Z,1.81
2019-02-16T08:35:18.310Z,1.98
2019-02-16T08:37:26.896Z,1.85
2019-02-16T08:39:35.633Z,1.86
2019-02-16T08:41:50.215Z,2.09
2019-02-16T08:44:03.176Z,2.21
2019-02-16T08:46:31.337Z,2.19
2019-02-16T08:48:56.271Z,2.14
2019-02-16T08:51:04.586Z,2.04
2019-02-16T08:53:20.383Z,2.10
2019-02-16T08:55:35.445Z,2.13
2019-02-16T08:57:46.918Z,2.19
2019-02-16T09:00:02.531Z,2.33
2019-02-16T09:02:11.432Z,2.54
2019-02-16T09:04:26.385Z,2.47
2019-02-16T09:06:33.066Z,2.35
2019-02-16T09:08:41.785Z,2.53
2019-02-16T09:11:02.876Z,2.82
2019-02-16T09:13:18.067Z,3.06
2019-02-16T09:15:27.328Z,3.11
2019-02-16T09:17:40.835Z,2.92
2019-02-16T09:19:47.284Z,2.89
2019-02-16T09:21:54.780Z,2.81
2019-02-16T09:24:21.206Z,2.63
2019-02-16T09:26:36.265Z,2.55
2019-02-16T09:28:48.116Z,2.75
2019-02-16T09:31:15.024Z,3.02
2019-02-16T09:33:26.686Z,2.92
2019-02-16T09:35:38.685Z,2.95
2019-02-16T09:37:56.474Z,2.91
2019-02-16T09:40:03.359Z,2.93
2019-02-16T09:42:28.592Z,3.12
2019-02-16T09:44:44.174Z,3.23
2019-02-16T09:46:59.844Z,3.59
2019-02-16T09:49:17.593Z,3.91
2019-02-16T09:51:35.935Z,3.96
2019-02-16T09:54:08.190Z,4.07
2019-02-16T09:56:22.473Z,3.96
2019-02-16T09:58:34.114Z,4.05
2019-02-16T10:00:50.014Z,4.17
2019-02-16T10:03:15.444Z,4.24
2019-02-16T10:05:33.981Z,4.23
2019-02-16T10:07:48.625Z,4.44
2019-02-16T10:09:56.945Z,4.38
2019-02-16T10:12:13.154Z,4.51
2019-02-16T10:14:28.264Z,4.67
2019-02-16T10:16:39.786Z,4.74
2019-02-16T10:18:52.279Z,4.80
2019-02-16T10:21:00.824Z,4.85
2019-02-16T10:23:08.842Z,4.83
2019-02-16T10:25:24.276Z,4.94
2019-02-16T10:27:52.474Z,5.08
2019-02-16T10:30:11.414Z,5.23
2019-02-16T10:32:30.565Z,5.45
2019-02-16T10:34:53.917Z,5.48
2019-02-16T10:37:15.042Z,5.46
2019-02-16T10:39:26.836Z,5.49
2019-02-16T10:41:38.527Z,5.70
2019-02-16T10:44:00.793Z,5.85
2019-02-16T10:46:26.586Z,6.04
2019-02-16T10:48:42.746Z,6.08
2019-02-16T10:50:54.246Z,6.21
2019-02-16T10:53:15.088Z,6.17
2019-02-16T10:55:40.356Z,6.27
2019-02-16T10:57:52.053Z,6.33
2019-02-16T11:00:01.007Z,6.52
2019-02-16T11:02:17.060Z,6.74
2019-02-16T11:04:38.007Z,6.87
2019-02-16T11:06:57.610Z,6.91
2019-02-16T11:09:16.363Z,6.96
2019-02-16T11:11:31.533Z,7.01
2019-02-16T11:13:44.474Z,7.09
2019-02-16T11:15:56.365Z,7.23
2019-02-16T11:18:11.124Z,7.47
2019-02-16T11:20:35.881Z,7.52
2019-02-16T11:23:01.113Z,7.74
2019-02-16T11:25:17.325Z,7.98
2019-02-16T11:27:35.127Z,8.07
2019-02-16T11:29:49.372Z,8.08
2019-02-16T11:32:01.493Z,8.15
2019-02-16T11:34:13.785Z,8.38
2019-02-16T11:36:27.015Z,8.45
2019-02-16T11:38:33.792Z,8.43
2019-02-16T11:40:48.199Z,8.55
2019-02-16T11:43:00.135Z,8.56
2019-02-16T11:45:27.565Z,8.64
2019-02-16T11:47:54.224Z,8.73
2019-02-16T11:50:05.500Z,8.78
2019-02-16T11:52:33.894Z,8.78
2019-02-16T11:54:45.657Z,8.83
2019-02-16T11:56:52.693Z,8.97
2019-02-16T11:59:13.783Z,9.03
2019-02-16T12:01:32.917Z,9.16
2019-02-16T12:03:58.954Z,9.40
2019-02-16T12:06:23.054Z,9.48
2019-02-16T12:08:31.464Z,9.47
2019-02-16T12:10:39.954Z,9.50
2019-02-16T12:12:54.120Z,9.52
2019-02-16T12:15:02.717Z,9.60
2019-02-16T12:17:11.485Z,9.67
2019-02-16T12:19:22.915Z,9.70
2019-02-16T12:21:57.849Z,9.69
2019-02-16T12:24:10.053Z,9.70
2019-02-16T12:26:18.504Z,9.75
2019-02-16T12:28:44.825Z,9.76
2019-02-16T12:30:56.215Z,9.79
2019-02-16T12:33:05.303Z,9.82
2019-02-16T12:35:13.863Z,9.79
2019-02-16T12:37:22.526Z,9.79
2019-02-16T12:39:34.517Z,9.85
2019-02-16T12:41:46.175Z,9.87
2019-02-16T12:43:54.540Z,9.91
2019-02-16T12:46:03.124Z,9.90
2019-02-16T12:48:20.634Z,9.90
2019-02-16T12:50:35.434Z,9.96
2019-02-16T12:52:50.165Z,10.13
2019-02-16T12:55:02.477Z,10.22
2019-02-16T12:57:26.845Z,10.31
2019-02-16T12:59:38.155Z,10.38
2019-02-16T13:01:44.800Z,10.34
2019-02-16T13:04:11.706Z,10.36
2019-02-16T13:06:32.345Z,10.34
2019-02-16T13:08:43.631Z,10.36
2019-02-16T13:10:52.325Z,10.44
2019-02-16T13:13:04.174Z,10.45
2019-02-16T13:15:12.771Z,10.52
2019-02-16T13:17:39.899Z,10.53
2019-02-16T13:19:54.667Z,10.51
2019-02-16T13:22:09.934Z,10.56
2019-02-16T13:24:18.445Z,10.58
2019-02-16T13:26:27.277Z,10.56
2019-02-16T13:28:52.754Z,10.56
2019-02-16T13:31:17.674Z,10.61
2019-02-16T13:33:38.735Z,10.66
2019-02-16T13:35:58.501Z,10.62
2019-02-16T13:38:17.104Z,10.56
2019-02-16T13:40:38.624Z,10.53
2019-02-16T13:42:45.504Z,10.54
2019-02-16T13:44:54.114Z,10.57
2019-02-16T13:47:12.071Z,10.62
2019-02-16T13:49:23.741Z,10.68
2019-02-16T13:51:39.004Z,10.69
2019-02-16T13:53:47.563Z,10.69
2019-02-16T13:55:56.133Z,10.73
2019-02-16T13:58:11.122Z,10.72
2019-02-16T14:00:21.243Z,10.73
2019-02-16T14:02:32.833Z,10.80
2019-02-16T14:04:47.593Z,10.82
2019-02-16T14:07:04.112Z,10.79
2019-02-16T14:09:19.673Z,10.80
2019-02-16T14:11:28.998Z,10.76
2019-02-16T14:13:46.328Z,10.71
2019-02-16T14:15:57.798Z,10.70
2019-02-16T14:18:05.081Z,10.69
2019-02-16T14:20:12.483Z,10.67
2019-02-16T14:22:19.713Z,10.70
2019-02-16T14:24:40.473Z,10.66
2019-02-16T14:26:47.313Z,10.64
2019-02-16T14:28:54.502Z,10.59
2019-02-16T14:31:01.472Z,10.56
2019-02-16T14:33:09.404Z,10.53
2019-02-16T14:35:18.107Z,10.58
2019-02-16T14:37:28.190Z,10.59
2019-02-16T14:39:35.446Z,10.56
2019-02-16T14:41:42.473Z,10.54
2019-02-16T14:43:49.517Z,10.53
2019-02-16T14:45:56.654Z,10.58
2019-02-16T14:48:03.678Z,10.52
2019-02-16T14:50:11.865Z,10.45
2019-02-16T14:52:20.451Z,10.44
2019-02-16T14:54:28.954Z,10.47
2019-02-16T14:56:36.748Z,10.37
2019-02-16T14:58:43.794Z,10.33
2019-02-16T15:00:52.106Z,10.24
2019-02-16T15:02:59.189Z,10.18
2019-02-16T15:05:07.160Z,10.13
2019-02-16T15:07:14.496Z,10.10
2019-02-16T15:09:21.324Z,10.00
2019-02-16T15:11:28.033Z,9.97
2019-02-16T15:13:34.992Z,9.94
2019-02-16T15:15:42.554Z,9.90
2019-02-16T15:17:50.436Z,9.84
2019-02-16T15:19:57.952Z,9.73
2019-02-16T15:22:05.044Z,9.67
2019-02-16T15:24:11.937Z,9.60
2019-02-16T15:26:28.358Z,9.51
2019-02-16T15:28:30.614Z,9.43
2019-02-16T15:30:37.849Z,9.37
2019-02-16T15:32:45.245Z,9.32
2019-02-16T15:34:52.649Z,9.27
2019-02-16T15:37:00.070Z,9.18
2019-02-16T15:39:08.680Z,9.09
2019-02-16T15:41:16.428Z,9.03
2019-02-16T15:43:23.897Z,8.95
2019-02-16T15:45:32.507Z,8.87
2019-02-16T15:47:40.276Z,8.78
2019-02-16T15:49:47.510Z,8.70
2019-02-16T15:51:54.413Z,8.61
2019-02-16T15:54:01.958Z,8.53
2019-02-16T15:56:10.791Z,8.44
2019-02-16T15:58:18.241Z,8.35
2019-02-16T16:00:27.626Z,8.25
2019-02-16T16:02:34.498Z,8.18
2019-02-16T16:04:41.951Z,8.12
2019-02-16T16:06:49.093Z,8.06
2019-02-16T16:08:59.163Z,7.99
2019-02-16T16:11:11.977Z,7.92
2019-02-16T16:13:39.371Z,7.83
2019-02-16T16:15:50.928Z,7.84
2019-02-16T16:17:59.599Z,7.85
2019-02-16T16:22:36.421Z,7.68
2019-02-16T16:25:01.621Z,7.61
2019-02-16T16:27:25.732Z,7.55
2019-02-16T16:29:40.200Z,7.50
2019-02-16T16:31:55.351Z,7.48
2019-02-16T16:34:03.910Z,7.46
2019-02-16T16:36:21.330Z,7.37
2019-02-16T16:38:29.940Z,7.31
2019-02-16T16:40:43.161Z,7.27
2019-02-16T16:43:01.805Z,7.21
2019-02-16T16:45:18.950Z,7.12
2019-02-16T16:47:33.251Z,7.03
2019-02-16T16:49:50.883Z,6.94
2019-02-16T16:52:18.034Z,6.85
2019-02-16T16:54:34.647Z,6.77
2019-02-16T16:56:44.277Z,6.66
2019-02-16T16:58:53.022Z,6.62
2019-02-16T17:01:19.833Z,6.58
2019-02-16T17:03:26.523Z,6.55
2019-02-16T17:05:44.235Z,6.51
2019-02-16T17:08:03.583Z,6.45
2019-02-16T17:10:30.963Z,6.41
2019-02-16T17:12:42.472Z,6.37
2019-02-16T17:15:10.923Z,6.35
2019-02-16T17:17:22.204Z,6.33
2019-02-16T17:19:30.753Z,6.24
2019-02-16T17:21:54.664Z,6.17
2019-02-16T17:24:13.814Z,6.13
2019-02-16T17:26:20.783Z,6.12
2019-02-16T17:28:45.996Z,6.10
2019-02-16T17:30:54.973Z,6.09
2019-02-16T17:33:03.793Z,6.09
2019-02-16T17:35:19.263Z,6.08
2019-02-16T17:37:27.710Z,6.11
2019-02-16T17:40:00.327Z,6.11
2019-02-16T17:42:08.904Z,6.07
2019-02-16T17:44:35.863Z,6.03
2019-02-16T17:46:47.795Z,5.98
2019-02-16T17:49:12.890Z,5.94
2019-02-16T17:51:39.424Z,5.93
2019-02-16T17:53:46.294Z,5.95
2019-02-16T17:56:13.753Z,6.01
2019-02-16T17:58:22.711Z,6.09
2019-02-16T18:00:32.903Z,6.08
2019-02-16T18:02:41.772Z,6.05
2019-02-16T18:04:56.421Z,6.07
2019-02-16T18:07:05.055Z,6.07
2019-02-16T18:09:25.713Z,6.01
2019-02-16T18:11:40.664Z,5.99
2019-02-16T18:13:52.953Z,5.95
2019-02-16T18:16:02.037Z,5.93
2019-02-16T18:18:27.635Z,5.87
2019-02-16T18:20:36.675Z,5.85
2019-02-16T18:22:45.917Z,5.81
2019-02-16T18:25:11.602Z,5.79
2019-02-16T18:27:20.924Z,5.78
2019-02-16T18:29:46.033Z,5.71
2019-02-16T18:32:11.554Z,5.65
2019-02-16T18:34:26.311Z,5.63
2019-02-16T18:36:35.074Z,5.62
2019-02-16T18:38:43.824Z,5.61
2019-02-16T18:40:52.506Z,5.60
2019-02-16T18:43:04.671Z,5.62
2019-02-16T18:45:23.113Z,5.61
2019-02-16T18:47:41.354Z,5.57
2019-02-16T18:49:56.909Z,5.51
2019-02-16T18:52:10.559Z,5.49
2019-02-16T18:54:23.662Z,5.41
2019-02-16T18:56:31.156Z,5.40
2019-02-16T18:58:47.767Z,5.40
2019-02-16T19:01:06.106Z,5.43
2019-02-16T19:03:21.596Z,5.43
2019-02-16T19:05:46.842Z,5.40
2019-02-16T19:08:14.575Z,5.38
2019-02-16T19:10:26.751Z,5.37
2019-02-16T19:12:52.483Z,5.39
2019-02-16T19:15:08.776Z,5.42
2019-02-16T19:17:28.244Z,5.46
2019-02-16T19:19:53.544Z,5.49
2019-02-16T19:22:00.842Z,5.49
2019-02-16T19:24:15.052Z,5.48
2019-02-16T19:26:29.449Z,5.44
2019-02-16T19:28:52.016Z,5.40
2019-02-16T19:31:17.369Z,5.38
2019-02-16T19:33:37.611Z,5.33
2019-02-16T19:35:50.994Z,5.25
2019-02-16T19:38:15.821Z,5.23
2019-02-16T19:40:34.474Z,5.20
2019-02-16T19:42:49.614Z,5.19
2019-02-16T19:45:17.047Z,5.11
2019-02-16T19:47:32.447Z,5.08
2019-02-16T19:49:40.672Z,5.03
2019-02-16T19:51:53.672Z,4.96
2019-02-16T19:54:04.441Z,4.88
2019-02-16T19:56:14.954Z,4.81
2019-02-16T19:58:28.437Z,4.81
2019-02-16T20:00:48.565Z,4.79
2019-02-16T20:03:04.077Z,4.76
2019-02-16T20:05:21.318Z,4.76
2019-02-16T20:07:42.272Z,4.73
2019-02-16T20:09:59.406Z,4.76
2019-02-16T20:12:19.887Z,4.78
2019-02-16T20:14:29.844Z,4.77
2019-02-16T20:16:39.360Z,4.76
2019-02-16T20:18:59.334Z,4.79
2019-02-16T20:21:11.380Z,4.77
2019-02-16T20:23:21.707Z,4.83
2019-02-16T20:25:49.234Z,4.80
2019-02-16T20:28:09.716Z,4.76
2019-02-16T20:30:28.075Z,4.71
2019-02-16T20:32:37.252Z,4.69
2019-02-16T20:34:48.012Z,4.68
2019-02-16T20:36:57.126Z,4.63
2019-02-16T20:39:11.087Z,4.59
2019-02-16T20:41:38.134Z,4.54
2019-02-16T20:43:53.069Z,4.50
2019-02-16T20:46:05.910Z,4.42
2019-02-16T20:48:19.233Z,4.38
2019-02-16T20:50:38.039Z,4.32
2019-02-16T20:52:47.003Z,4.33
2019-02-16T20:55:08.440Z,4.30
2019-02-16T20:57:32.654Z,4.26
2019-02-16T20:59:51.023Z,4.28
2019-02-16T21:02:03.133Z,4.30
2019-02-16T21:04:18.336Z,4.27
2019-02-16T21:06:27.174Z,4.24
2019-02-16T21:08:34.236Z,4.22
2019-02-16T21:10:43.333Z,4.21
2019-02-16T21:12:51.904Z,4.19
2019-02-16T21:15:08.260Z,4.15
2019-02-16T21:17:31.734Z,4.08
2019-02-16T21:19:44.135Z,3.98
2019-02-16T21:22:07.247Z,3.88
2019-02-16T21:24:22.684Z,3.80
2019-02-16T21:26:47.414Z,3.68
2019-02-16T21:29:08.254Z,3.62
2019-02-16T21:31:29.633Z,3.53
2019-02-16T21:33:48.092Z,3.46
2019-02-16T21:36:02.694Z,3.45
2019-02-16T21:38:29.393Z,3.43
2019-02-16T21:40:47.154Z,3.43
2019-02-16T21:42:58.833Z,3.39
2019-02-16T21:45:08.291Z,3.34
2019-02-16T21:47:35.106Z,3.30
2019-02-16T21:50:00.414Z,3.25
2019-02-16T21:52:12.924Z,3.23
2019-02-16T21:54:22.986Z,3.21
2019-02-16T21:56:44.175Z,3.22
2019-02-16T21:58:53.211Z,3.20
2019-02-16T22:01:08.251Z,3.17
2019-02-16T22:03:20.944Z,3.08
2019-02-16T22:05:32.878Z,3.01
2019-02-16T22:07:41.613Z,2.99
2019-02-16T22:09:53.180Z,2.97
2019-02-16T22:12:08.762Z,2.99
2019-02-16T22:14:16.704Z,2.98
2019-02-16T22:16:23.643Z,2.95
2019-02-16T22:18:30.514Z,2.96
2019-02-16T22:20:37.502Z,2.93
2019-02-16T22:22:44.973Z,2.92
2019-02-16T22:24:52.264Z,2.90
2019-02-16T22:26:59.243Z,2.88
2019-02-16T22:29:07.594Z,2.89
2019-02-16T22:31:15.023Z,2.90
2019-02-16T22:33:22.720Z,2.92
2019-02-16T22:35:30.005Z,2.92
2019-02-16T22:37:37.003Z,2.93
2019-02-16T22:39:43.954Z,2.95
2019-02-16T22:41:51.531Z,2.94
2019-02-16T22:43:58.413Z,2.97
2019-02-16T22:46:05.382Z,2.99
2019-02-16T22:48:12.790Z,2.98
2019-02-16T22:50:19.926Z,2.98
2019-02-16T22:52:26.790Z,2.98
2019-02-16T22:54:34.953Z,2.99
2019-02-16T22:56:41.751Z,2.98
2019-02-16T22:58:49.493Z,2.98
2019-02-16T23:00:56.939Z,3.01
2019-02-16T23:03:05.985Z,3.02
2019-02-16T23:05:13.004Z,3.03
2019-02-16T23:07:20.463Z,3.07
2019-02-16T23:09:28.677Z,3.12
2019-02-16T23:11:35.903Z,3.15
2019-02-16T23:13:42.881Z,3.17
2019-02-16T23:15:50.415Z,3.13
2019-02-16T23:17:57.603Z,3.12
2019-02-16T23:20:05.241Z,3.11
2019-02-16T23:22:12.311Z,3.10
2019-02-16T23:24:19.348Z,3.10
2019-02-16T23:26:27.381Z,3.10
2019-02-16T23:28:38.914Z,3.09
2019-02-16T23:30:43.406Z,3.08
2019-02-16T23:32:50.086Z,3.02
2019-02-16T23:34:57.276Z,2.98
2019-02-16T23:37:04.320Z,2.92
2019-02-16T23:39:12.690Z,2.86
2019-02-16T23:41:19.702Z,2.80
2019-02-16T23:43:34.313Z,2.80
2019-02-16T23:46:01.693Z,2.76
2019-02-16T23:48:09.587Z,2.70
2019-02-16T23:50:17.082Z,2.65
2019-02-16T23:52:25.165Z,2.60
2019-02-16T23:54:32.871Z,2.57
2019-02-16T23:56:40.373Z,2.53
2019-02-16T23:58:49.523Z,2.48
